Time;durP1;ratioP1;P1;durP2;ratioP2;P2;SDS_P1;SDS_P2;PMS_P1;PMS_P2;Temp;Humidity;BMP_temperature;BMP_pressure;BME280_temperature;BME280_humidity;BME280_pressure;Samples;Min_cycle;Max_cycle;Signal;HPM_P1;HPM_P2
2023/05/12 00:00:16;;;;;;;11.82;6.53;;;;;;;;;;5030859;28;20131;-75
2023/05/12 00:02:44;;;;;;;10.38;5.88;;;;;;;;;;5011765;28;20035;-75
2023/05/12 00:05:10;;;;;;;15.13;7.03;;;;;;;;;;5015746;28;20057;-75
2023/05/12 00:07:36;;;;;;;8.07;6.00;;;;;;;;;;5012684;28;20408;-75
2023/05/12 00:10:03;;;;;;;15.20;6.93;;;;;;;;;;4996596;28;20029;-74
2023/05/12 00:12:31;;;;;;;11.35;6.40;;;;;;;;;;4979645;28;20416;-74
2023/05/12 00:14:57;;;;;;;7.78;5.65;;;;;;;;;;5010593;28;20022;-75
2023/05/12 00:17:23;;;;;;;14.40;6.50;;;;;;;;;;5011795;28;20089;-75
2023/05/12 00:19:49;;;;;;;16.60;6.15;;;;;;;;;;5011723;28;20033;-75
2023/05/12 00:22:15;;;;;;;10.77;6.43;;;;;;;;;;5011937;28;20528;-75
2023/05/12 00:24:41;;;;;;;19.42;5.90;;;;;;;;;;5012407;28;20022;-75
2023/05/12 00:27:07;;;;;;;11.93;5.53;;;;;;;;;;5015069;28;20038;-74
2023/05/12 00:29:34;;;;;;;15.70;6.72;;;;;;;;;;5022476;28;20054;-73
2023/05/12 00:32:00;;;;;;;10.75;5.72;;;;;;;;;;4992964;28;20425;-75
2023/05/12 00:34:27;;;;;;;18.75;6.68;;;;;;;;;;4994142;28;20029;-76
2023/05/12 00:36:53;;;;;;;16.58;7.07;;;;;;;;;;5010361;28;20039;-76
2023/05/12 00:39:20;;;;;;;16.83;6.53;;;;;;;;;;5011526;28;20034;-75
2023/05/12 00:41:48;;;;;;;12.73;6.88;;;;;;;;;;4989929;28;20062;-74
2023/05/12 00:44:17;;;;;;;10.73;7.32;;;;;;;;;;5002542;28;20040;-75
2023/05/12 00:46:43;;;;;;;10.15;5.63;;;;;;;;;;5010475;28;20414;-75
2023/05/12 00:49:09;;;;;;;14.65;5.95;;;;;;;;;;5014599;28;20361;-75
2023/05/12 00:51:35;;;;;;;8.32;5.93;;;;;;;;;;4995955;28;20045;-75
2023/05/12 00:54:02;;;;;;;15.40;6.80;;;;;;;;;;4998058;28;20293;-74
2023/05/12 00:56:28;;;;;;;8.75;6.38;;;;;;;;;;5011979;28;20048;-74
2023/05/12 00:58:54;;;;;;;8.82;6.63;;;;;;;;;;5009773;28;20033;-75
2023/05/12 01:01:21;;;;;;;15.00;6.43;;;;;;;;;;5009494;28;20042;-74
2023/05/12 01:03:50;;;;;;;18.42;6.63;;;;;;;;;;4977449;28;20178;-76
2023/05/12 01:06:46;;;;;;;11.20;6.65;;;;;;;;;;5002926;28;20050;-74
2023/05/12 01:09:13;;;;;;;12.68;6.45;;;;;;;;;;5006974;28;20440;-74
2023/05/12 01:11:39;;;;;;;13.50;6.75;;;;;;;;;;5030737;28;20081;-74
2023/05/12 01:14:05;;;;;;;13.95;6.90;;;;;;;;;;5030522;28;20101;-75
2023/05/12 01:16:35;;;;;;;14.35;7.50;;;;;;;;;;5007089;28;20038;-75
2023/05/12 01:19:02;;;;;;;16.08;7.75;;;;;;;;;;5026385;28;20102;-74
2023/05/12 01:21:28;;;;;;;12.93;7.53;;;;;;;;;;4998414;28;20049;-75
2023/05/12 01:23:56;;;;;;;10.93;7.38;;;;;;;;;;5002031;28;20045;-75
2023/05/12 01:26:22;;;;;;;13.52;6.72;;;;;;;;;;5009038;28;20042;-74
2023/05/12 01:28:48;;;;;;;11.27;7.00;;;;;;;;;;5010727;28;20037;-74
2023/05/12 01:31:14;;;;;;;11.13;7.47;;;;;;;;;;4992751;28;20045;-74
2023/05/12 01:33:40;;;;;;;14.02;6.75;;;;;;;;;;5009310;28;20041;-72
2023/05/12 01:36:07;;;;;;;11.30;6.22;;;;;;;;;;5008746;28;20045;-74
2023/05/12 01:38:33;;;;;;;13.00;6.35;;;;;;;;;;4976755;28;20026;-75
2023/05/12 01:40:59;;;;;;;10.85;6.07;;;;;;;;;;5003618;28;20598;-74
2023/05/12 01:43:26;;;;;;;10.65;6.13;;;;;;;;;;5008981;28;20515;-74
2023/05/12 01:45:51;;;;;;;11.35;6.25;;;;;;;;;;4989801;28;20049;-75
2023/05/12 01:48:17;;;;;;;6.65;6.03;;;;;;;;;;5014455;28;20107;-75
2023/05/12 01:50:44;;;;;;;11.43;6.65;;;;;;;;;;5017406;28;20052;-74
2023/05/12 01:53:15;;;;;;;14.05;6.00;;;;;;;;;;5012681;28;20038;-75
2023/05/12 01:55:42;;;;;;;8.25;6.20;;;;;;;;;;4997380;28;20034;-75
2023/05/12 01:58:09;;;;;;;8.77;7.00;;;;;;;;;;4999716;28;20477;-75
2023/05/12 02:00:35;;;;;;;15.10;6.43;;;;;;;;;;5012839;28;20037;-75
2023/05/12 02:03:05;;;;;;;7.97;6.68;;;;;;;;;;5003945;28;20117;-75
2023/05/12 02:05:31;;;;;;;6.13;5.30;;;;;;;;;;5023431;28;20149;-75
2023/05/12 02:08:00;;;;;;;9.13;6.13;;;;;;;;;;5010273;28;20108;-75
2023/05/12 02:10:30;;;;;;;12.38;6.35;;;;;;;;;;4996272;28;20037;-74
2023/05/12 02:12:56;;;;;;;12.85;6.50;;;;;;;;;;4995668;28;20021;-75
2023/05/12 02:15:23;;;;;;;7.95;6.25;;;;;;;;;;4984052;28;20054;-75
2023/05/12 02:17:52;;;;;;;11.40;7.32;;;;;;;;;;4996331;28;20061;-76
2023/05/12 02:20:21;;;;;;;15.00;10.18;;;;;;;;;;5011699;28;20037;-74
2023/05/12 02:22:47;;;;;;;15.55;6.43;;;;;;;;;;5012109;28;20059;-76
2023/05/12 02:25:14;;;;;;;13.60;6.35;;;;;;;;;;5011490;28;20045;-75
2023/05/12 02:27:44;;;;;;;10.05;6.28;;;;;;;;;;5012330;28;20038;-74
2023/05/12 02:30:14;;;;;;;11.00;6.32;;;;;;;;;;5011965;28;20203;-76
2023/05/12 02:32:42;;;;;;;16.63;7.00;;;;;;;;;;5012054;28;20030;-75
2023/05/12 02:35:09;;;;;;;17.20;6.28;;;;;;;;;;4962857;28;20046;-76
2023/05/12 02:37:36;;;;;;;7.50;5.88;;;;;;;;;;4976488;28;20042;-74
2023/05/12 02:40:03;;;;;;;6.13;5.35;;;;;;;;;;5027013;28;20042;-75
2023/05/12 02:42:34;;;;;;;6.72;6.05;;;;;;;;;;5011819;28;20136;-74
2023/05/12 02:45:01;;;;;;;;;;;;;;;;;;5012429;28;20115;-75
2023/05/12 02:47:30;;;;;;;7.47;5.20;;;;;;;;;;5011698;28;19913;-75
2023/05/12 02:49:56;;;;;;;11.30;5.90;;;;;;;;;;4981646;28;20038;-75
2023/05/12 02:52:22;;;;;;;12.10;5.72;;;;;;;;;;5012456;28;20032;-75
2023/05/12 02:54:47;;;;;;;9.05;5.80;;;;;;;;;;4995204;28;20049;-73
2023/05/12 02:57:14;;;;;;;9.27;5.90;;;;;;;;;;5000587;28;20038;-74
2023/05/12 02:59:39;;;;;;;10.23;7.30;;;;;;;;;;4987782;28;20048;-75
2023/05/12 03:02:06;;;;;;;14.68;9.35;;;;;;;;;;5011108;28;20030;-75
2023/05/12 03:04:32;;;;;;;15.43;9.88;;;;;;;;;;4994895;28;20041;-74
2023/05/12 03:06:58;;;;;;;8.30;6.47;;;;;;;;;;5011094;28;20516;-74
2023/05/12 03:09:24;;;;;;;11.00;5.97;;;;;;;;;;4994708;28;20037;-76
2023/05/12 03:11:52;;;;;;;6.85;6.18;;;;;;;;;;5007713;28;20038;-74
2023/05/12 03:14:18;;;;;;;10.07;6.13;;;;;;;;;;4994739;28;20033;-76
2023/05/12 03:16:45;;;;;;;11.18;6.15;;;;;;;;;;5012081;28;20037;-75
2023/05/12 03:19:11;;;;;;;6.85;5.68;;;;;;;;;;4974810;28;20037;-74
2023/05/12 03:21:38;;;;;;;11.35;6.03;;;;;;;;;;4950739;28;20092;-76
2023/05/12 03:24:04;;;;;;;10.35;5.93;;;;;;;;;;4991864;28;20113;-76
2023/05/12 03:26:30;;;;;;;7.65;5.80;;;;;;;;;;5012152;28;20622;-75
2023/05/12 03:28:56;;;;;;;12.13;5.65;;;;;;;;;;5012008;28;20033;-76
2023/05/12 03:31:23;;;;;;;6.63;5.95;;;;;;;;;;5010702;28;20504;-75
2023/05/12 03:33:52;;;;;;;7.28;6.07;;;;;;;;;;4981351;28;20049;-73
2023/05/12 03:36:18;;;;;;;10.73;7.22;;;;;;;;;;5010208;28;20048;-74
2023/05/12 03:38:44;;;;;;;9.82;6.32;;;;;;;;;;4994573;28;20029;-74
2023/05/12 03:41:12;;;;;;;15.13;6.38;;;;;;;;;;5011586;28;20543;-75
2023/05/12 03:43:39;;;;;;;14.48;5.55;;;;;;;;;;5010587;28;20049;-75
2023/05/12 03:46:05;;;;;;;9.32;6.10;;;;;;;;;;4989440;28;20049;-76
2023/05/12 03:48:31;;;;;;;5.93;5.43;;;;;;;;;;4999936;28;20400;-75
2023/05/12 03:50:57;;;;;;;6.40;5.72;;;;;;;;;;4977624;28;20052;-76
2023/05/12 03:53:24;;;;;;;12.90;6.43;;;;;;;;;;4974207;28;20034;-76
2023/05/12 03:55:50;;;;;;;6.82;5.78;;;;;;;;;;4993772;28;20068;-75
2023/05/12 03:58:16;;;;;;;11.45;5.80;;;;;;;;;;5009849;28;20133;-75
2023/05/12 04:00:42;;;;;;;12.90;6.70;;;;;;;;;;4997391;28;20109;-75
2023/05/12 04:03:08;;;;;;;7.07;6.28;;;;;;;;;;5010721;28;20041;-76
2023/05/12 04:05:35;;;;;;;6.20;5.70;;;;;;;;;;4981572;28;20108;-75
2023/05/12 04:08:02;;;;;;;11.05;7.18;;;;;;;;;;4996725;28;20022;-74
2023/05/12 04:10:28;;;;;;;10.48;6.88;;;;;;;;;;5003263;28;20097;-75
2023/05/12 04:12:56;;;;;;;9.73;6.13;;;;;;;;;;5022354;28;20043;-74
2023/05/12 04:15:23;;;;;;;7.40;6.50;;;;;;;;;;4985474;28;20045;-76
2023/05/12 04:17:49;;;;;;;16.40;6.75;;;;;;;;;;5011715;28;20030;-76
2023/05/12 04:20:15;;;;;;;6.88;5.82;;;;;;;;;;5009699;28;20186;-74
2023/05/12 04:22:43;;;;;;;6.60;6.00;;;;;;;;;;5009778;28;20543;-75
2023/05/12 04:25:08;;;;;;;6.10;5.60;;;;;;;;;;5009559;28;20053;-75
2023/05/12 04:27:35;;;;;;;8.88;6.90;;;;;;;;;;5009717;28;20034;-74
2023/05/12 04:30:01;;;;;;;7.28;6.03;;;;;;;;;;4983323;28;20034;-75
2023/05/12 04:32:30;;;;;;;7.07;6.20;;;;;;;;;;5004004;28;20030;-76
2023/05/12 04:34:56;;;;;;;6.93;6.25;;;;;;;;;;5010065;28;20477;-76
2023/05/12 04:37:23;;;;;;;15.38;6.50;;;;;;;;;;4986581;28;20045;-78
2023/05/12 04:39:49;;;;;;;11.10;6.45;;;;;;;;;;4993561;28;20033;-75
2023/05/12 04:42:15;;;;;;;9.35;5.88;;;;;;;;;;5009133;28;20072;-76
2023/05/12 04:44:42;;;;;;;15.40;6.93;;;;;;;;;;5010551;28;20084;-77
2023/05/12 04:47:07;;;;;;;14.88;6.63;;;;;;;;;;5012700;28;20045;-75
2023/05/12 04:49:34;;;;;;;9.40;6.28;;;;;;;;;;4997256;28;20037;-76
2023/05/12 04:52:01;;;;;;;9.48;5.95;;;;;;;;;;5013196;28;20079;-77
2023/05/12 04:54:27;;;;;;;11.82;6.82;;;;;;;;;;5003109;28;20453;-73
2023/05/12 04:56:53;;;;;;;9.80;6.50;;;;;;;;;;5009654;28;20176;-72
2023/05/12 04:59:19;;;;;;;9.88;7.72;;;;;;;;;;5009683;28;20124;-72
2023/05/12 05:01:47;;;;;;;12.93;6.15;;;;;;;;;;5011745;28;20069;-71
2023/05/12 05:04:13;;;;;;;13.30;6.70;;;;;;;;;;5012830;28;20037;-73
2023/05/12 05:06:40;;;;;;;9.10;6.05;;;;;;;;;;5009674;28;20641;-74
2023/05/12 05:09:06;;;;;;;13.38;7.13;;;;;;;;;;5008162;28;20034;-74
2023/05/12 05:11:32;;;;;;;8.68;6.57;;;;;;;;;;5008501;28;20115;-73
2023/05/12 05:13:58;;;;;;;10.18;7.13;;;;;;;;;;5009779;28;20070;-73
2023/05/12 05:16:25;;;;;;;14.63;6.85;;;;;;;;;;5008301;28;20042;-73
2023/05/12 05:18:51;;;;;;;13.75;6.60;;;;;;;;;;5008543;28;20034;-74
2023/05/12 05:21:17;;;;;;;12.27;6.38;;;;;;;;;;5007806;28;20551;-74
2023/05/12 05:23:43;;;;;;;13.38;6.38;;;;;;;;;;5006186;28;20030;-73
2023/05/12 05:26:10;;;;;;;10.82;6.38;;;;;;;;;;5009421;28;20433;-74
2023/05/12 05:28:38;;;;;;;8.00;6.43;;;;;;;;;;5008565;28;20083;-73
2023/05/12 05:31:05;;;;;;;9.63;6.13;;;;;;;;;;5008140;28;20096;-74
2023/05/12 05:33:31;;;;;;;8.38;6.10;;;;;;;;;;5009309;28;20026;-74
2023/05/12 05:35:57;;;;;;;10.50;5.90;;;;;;;;;;5008100;28;20100;-74
2023/05/12 05:38:23;;;;;;;10.73;6.68;;;;;;;;;;4971547;28;20105;-73
2023/05/12 05:40:49;;;;;;;6.68;6.03;;;;;;;;;;5003599;28;20050;-72
2023/05/12 05:43:15;;;;;;;10.27;6.57;;;;;;;;;;5011466;28;20092;-73
2023/05/12 05:45:41;;;;;;;10.70;6.78;;;;;;;;;;5013000;28;20421;-72
2023/05/12 05:48:08;;;;;;;13.13;7.75;;;;;;;;;;5016215;28;20041;-73
2023/05/12 05:50:34;;;;;;;15.70;6.57;;;;;;;;;;5017015;28;20523;-74
2023/05/12 05:53:01;;;;;;;16.17;6.43;;;;;;;;;;5009344;28;20025;-75
2023/05/12 05:55:27;;;;;;;14.65;6.65;;;;;;;;;;5000806;28;20523;-74
2023/05/12 05:57:53;;;;;;;12.55;6.38;;;;;;;;;;4999433;28;22064;-74
2023/05/12 06:00:19;;;;;;;7.90;6.35;;;;;;;;;;5014606;28;20037;-73
2023/05/12 06:02:49;;;;;;;10.85;6.65;;;;;;;;;;5013185;28;20046;-73
2023/05/12 06:05:18;;;;;;;14.52;7.47;;;;;;;;;;5004246;28;20043;-74
2023/05/12 06:07:44;;;;;;;14.40;7.43;;;;;;;;;;4994335;28;20044;-73
2023/05/12 06:10:10;;;;;;;15.85;7.10;;;;;;;;;;5005854;28;20030;-74
2023/05/12 06:12:37;;;;;;;11.65;7.70;;;;;;;;;;5013602;28;20064;-74
2023/05/12 06:15:03;;;;;;;18.38;7.60;;;;;;;;;;5014022;28;20049;-73
2023/05/12 06:17:30;;;;;;;20.27;7.95;;;;;;;;;;5012391;28;20034;-74
2023/05/12 06:19:57;;;;;;;14.52;7.50;;;;;;;;;;4986391;28;20046;-72
2023/05/12 06:22:23;;;;;;;17.88;6.93;;;;;;;;;;4992859;28;20061;-73
2023/05/12 06:24:50;;;;;;;15.07;7.03;;;;;;;;;;5010619;28;20025;-73
2023/05/12 06:27:16;;;;;;;14.52;7.05;;;;;;;;;;4990845;28;20045;-74
2023/05/12 06:29:42;;;;;;;11.30;7.43;;;;;;;;;;5005342;28;20041;-73
2023/05/12 06:32:08;;;;;;;16.80;7.50;;;;;;;;;;5009751;28;20038;-73
2023/05/12 06:34:34;;;;;;;22.20;7.47;;;;;;;;;;5009392;28;20128;-73
2023/05/12 06:37:00;;;;;;;19.20;7.40;;;;;;;;;;4987014;28;20040;-74
2023/05/12 06:39:26;;;;;;;11.50;7.15;;;;;;;;;;5004854;28;20037;-74
2023/05/12 06:41:52;;;;;;;18.45;7.28;;;;;;;;;;5009984;28;20053;-72
2023/05/12 06:44:20;;;;;;;15.68;7.25;;;;;;;;;;4994783;28;20038;-74
2023/05/12 06:46:51;;;;;;;16.33;6.68;;;;;;;;;;5012232;28;20049;-74
2023/05/12 06:49:17;;;;;;;9.70;6.25;;;;;;;;;;5012530;28;20037;-74
2023/05/12 06:51:44;;;;;;;21.75;6.32;;;;;;;;;;5012702;28;20037;-74
2023/05/12 06:54:11;;;;;;;21.13;6.38;;;;;;;;;;4992290;28;20034;-75
2023/05/12 06:56:37;;;;;;;12.32;6.13;;;;;;;;;;4990043;28;20199;-74
2023/05/12 06:59:03;;;;;;;13.90;6.60;;;;;;;;;;5011625;28;20564;-75
2023/05/12 07:01:29;;;;;;;16.95;6.45;;;;;;;;;;4994745;28;20045;-74
2023/05/12 07:03:56;;;;;;;15.40;5.90;;;;;;;;;;5011221;28;20091;-74
2023/05/12 07:06:23;;;;;;;11.43;6.20;;;;;;;;;;5012454;28;20099;-76
2023/05/12 07:08:49;;;;;;;9.40;5.35;;;;;;;;;;5011199;28;20125;-74
2023/05/12 07:11:18;;;;;;;11.32;5.70;;;;;;;;;;4994656;28;20176;-73
2023/05/12 07:13:48;;;;;;;15.55;6.63;;;;;;;;;;5012773;28;20037;-75
2023/05/12 07:16:14;;;;;;;13.05;6.03;;;;;;;;;;5012451;28;20034;-74
2023/05/12 07:18:40;;;;;;;10.88;5.85;;;;;;;;;;5011368;28;20125;-74
2023/05/12 07:21:09;;;;;;;8.88;5.40;;;;;;;;;;5010922;28;20156;-74
2023/05/12 07:23:35;;;;;;;19.17;6.05;;;;;;;;;;5012325;28;20037;-74
2023/05/12 07:26:02;;;;;;;8.75;5.47;;;;;;;;;;5010683;28;20048;-74
2023/05/12 07:28:31;;;;;;;8.45;5.40;;;;;;;;;;4994843;28;20041;-73
2023/05/12 07:30:58;;;;;;;9.80;5.17;;;;;;;;;;5012261;28;20512;-73
2023/05/12 07:33:24;;;;;;;14.32;5.32;;;;;;;;;;5010936;28;20033;-74
2023/05/12 07:35:50;;;;;;;14.07;5.53;;;;;;;;;;5003910;28;20038;-73
2023/05/12 07:38:17;;;;;;;11.35;4.93;;;;;;;;;;5029806;28;20034;-74
2023/05/12 07:40:43;;;;;;;7.53;4.60;;;;;;;;;;5008425;28;20053;-74
2023/05/12 07:43:10;;;;;;;9.75;4.25;;;;;;;;;;5022378;28;20048;-73
2023/05/12 07:45:35;;;;;;;8.20;3.90;;;;;;;;;;5019570;28;20053;-74
2023/05/12 07:48:02;;;;;;;6.20;3.40;;;;;;;;;;5011965;28;20058;-75
2023/05/12 07:50:28;;;;;;;5.75;3.00;;;;;;;;;;5011840;28;20038;-74
2023/05/12 07:52:54;;;;;;;6.00;3.38;;;;;;;;;;5011701;28;20145;-74
2023/05/12 07:55:20;;;;;;;8.73;3.83;;;;;;;;;;5010208;28;20416;-74
2023/05/12 07:57:50;;;;;;;5.10;3.00;;;;;;;;;;5011387;28;20033;-75
2023/05/12 08:00:17;;;;;;;7.82;2.90;;;;;;;;;;5011628;28;20508;-74
2023/05/12 08:02:43;;;;;;;3.38;2.45;;;;;;;;;;5009984;28;20045;-74
2023/05/12 08:05:09;;;;;;;4.70;2.50;;;;;;;;;;5009719;28;20471;-75
2023/05/12 08:07:35;;;;;;;2.72;2.53;;;;;;;;;;5011003;28;20040;-74
2023/05/12 08:10:02;;;;;;;3.47;2.50;;;;;;;;;;5010071;28;20091;-75
2023/05/12 08:12:31;;;;;;;2.60;2.40;;;;;;;;;;5009771;28;20037;-74
2023/05/12 08:14:56;;;;;;;8.02;5.38;;;;;;;;;;5011371;28;20053;-74
2023/05/12 08:17:25;;;;;;;2.92;2.63;;;;;;;;;;4979885;28;20038;-75
2023/05/12 08:19:51;;;;;;;6.53;2.25;;;;;;;;;;5009982;28;20087;-74
2023/05/12 08:22:17;;;;;;;2.97;2.28;;;;;;;;;;5011132;28;20034;-74
2023/05/12 08:24:44;;;;;;;2.97;2.22;;;;;;;;;;5009750;28;20080;-74
2023/05/12 08:27:10;;;;;;;3.33;2.20;;;;;;;;;;4974239;28;20096;-73
2023/05/12 08:29:36;;;;;;;2.15;1.92;;;;;;;;;;5006616;28;20029;-74
2023/05/12 08:32:03;;;;;;;4.65;2.42;;;;;;;;;;5011255;28;20044;-75
2023/05/12 08:34:29;;;;;;;2.55;2.38;;;;;;;;;;5011897;28;20034;-74
2023/05/12 08:36:55;;;;;;;4.45;2.10;;;;;;;;;;5010863;28;20058;-74
2023/05/12 08:39:21;;;;;;;2.97;2.22;;;;;;;;;;5011974;28;20040;-75
2023/05/12 08:41:47;;;;;;;2.60;2.38;;;;;;;;;;5009648;28;20049;-74
2023/05/12 08:44:13;;;;;;;3.83;2.13;;;;;;;;;;5010979;28;20562;-73
2023/05/12 08:46:40;;;;;;;3.70;2.42;;;;;;;;;;4983789;28;20065;-75
2023/05/12 08:49:06;;;;;;;4.40;2.20;;;;;;;;;;5027287;28;20026;-74
2023/05/12 08:51:32;;;;;;;2.20;2.08;;;;;;;;;;4998754;28;20128;-75
2023/05/12 08:53:58;;;;;;;6.80;2.80;;;;;;;;;;5016243;28;20499;-75
2023/05/12 08:56:24;;;;;;;2.38;2.17;;;;;;;;;;5014491;28;20034;-75
2023/05/12 08:58:50;;;;;;;4.30;2.72;;;;;;;;;;5015090;28;20029;-75
2023/05/12 09:01:16;;;;;;;2.95;2.20;;;;;;;;;;5011541;28;20500;-75
2023/05/12 09:03:42;;;;;;;3.38;2.40;;;;;;;;;;5013304;28;20034;-75
2023/05/12 09:06:10;;;;;;;4.60;2.50;;;;;;;;;;4991575;28;20046;-74
2023/05/12 09:08:36;;;;;;;2.10;2.00;;;;;;;;;;5006817;28;20581;-74
2023/05/12 09:11:02;;;;;;;4.47;2.40;;;;;;;;;;5014083;28;20026;-74
2023/05/12 09:13:31;;;;;;;2.50;2.30;;;;;;;;;;5013299;28;20046;-75
2023/05/12 09:15:58;;;;;;;3.88;2.40;;;;;;;;;;5010917;28;20130;-74
2023/05/12 09:18:24;;;;;;;3.72;2.50;;;;;;;;;;4995854;28;20092;-74
2023/05/12 09:20:50;;;;;;;2.80;2.55;;;;;;;;;;5013777;28;20033;-75
2023/05/12 09:23:17;;;;;;;3.63;2.63;;;;;;;;;;5014023;28;20033;-75
2023/05/12 09:25:43;;;;;;;3.80;2.83;;;;;;;;;;5014629;28;20049;-74
2023/05/12 09:28:09;;;;;;;3.15;2.38;;;;;;;;;;5013752;28;20057;-74
2023/05/12 09:30:37;;;;;;;3.05;2.20;;;;;;;;;;5015468;28;20107;-75
2023/05/12 09:33:09;;;;;;;2.20;2.10;;;;;;;;;;5016777;28;20037;-74
2023/05/12 09:35:39;;;;;;;6.53;2.58;;;;;;;;;;5014515;28;20038;-75
2023/05/12 09:38:06;;;;;;;2.97;2.78;;;;;;;;;;5021149;28;20052;-75
2023/05/12 09:40:32;;;;;;;4.25;2.60;;;;;;;;;;5025146;28;20105;-75
2023/05/12 09:42:59;;;;;;;2.60;2.40;;;;;;;;;;5019329;28;20053;-74
2023/05/12 09:45:25;;;;;;;5.70;2.67;;;;;;;;;;5020676;28;20092;-75
2023/05/12 09:47:51;;;;;;;2.70;2.50;;;;;;;;;;5018495;28;20072;-75
2023/05/12 09:50:18;;;;;;;2.00;1.90;;;;;;;;;;5018326;28;20504;-74
2023/05/12 09:52:44;;;;;;;2.30;2.20;;;;;;;;;;5016865;28;20451;-74
2023/05/12 09:55:10;;;;;;;3.95;2.65;;;;;;;;;;5016619;28;20030;-75
2023/05/12 09:57:40;;;;;;;3.35;2.30;;;;;;;;;;5015905;28;20038;-74
2023/05/12 10:00:12;;;;;;;2.40;2.20;;;;;;;;;;5015569;28;20041;-74
2023/05/12 10:02:40;;;;;;;3.00;2.30;;;;;;;;;;5014394;28;20068;-75
2023/05/12 10:05:07;;;;;;;2.97;2.70;;;;;;;;;;4995886;28;20115;-76
2023/05/12 10:07:33;;;;;;;5.32;2.30;;;;;;;;;;5012841;28;20411;-73
2023/05/12 10:10:00;;;;;;;6.00;2.85;;;;;;;;;;5012686;28;20033;-74
2023/05/12 10:12:26;;;;;;;6.90;2.63;;;;;;;;;;5013494;28;20045;-73
2023/05/12 10:14:52;;;;;;;3.05;2.75;;;;;;;;;;5012594;28;20049;-75
2023/05/12 10:17:21;;;;;;;2.58;2.38;;;;;;;;;;5014226;28;20499;-77
2023/05/12 10:19:47;;;;;;;2.95;2.65;;;;;;;;;;5014410;28;20022;-78
2023/05/12 10:22:14;;;;;;;6.57;2.70;;;;;;;;;;5012388;28;20054;-76
2023/05/12 10:24:40;;;;;;;2.40;2.30;;;;;;;;;;5012094;28;20072;-76
2023/05/12 10:27:07;;;;;;;2.67;2.50;;;;;;;;;;5012050;28;20065;-77
2023/05/12 10:29:33;;;;;;;3.47;2.40;;;;;;;;;;5011390;28;20026;-77
2023/05/12 10:32:02;;;;;;;2.88;2.67;;;;;;;;;;4995826;28;20042;-77
2023/05/12 10:34:29;;;;;;;3.50;3.05;;;;;;;;;;5011806;28;20030;-79
2023/05/12 10:36:57;;;;;;;3.25;2.75;;;;;;;;;;5012906;28;20069;-79
2023/05/12 10:39:29;;;;;;;4.55;2.90;;;;;;;;;;4995967;28;20124;-79
2023/05/12 10:42:05;;;;;;;3.00;2.80;;;;;;;;;;5013142;28;20057;-78
2023/05/12 10:44:31;;;;;;;4.60;2.78;;;;;;;;;;5013291;28;20060;-79
2023/05/12 10:47:00;;;;;;;3.00;2.80;;;;;;;;;;5011743;28;20524;-77
2023/05/12 10:49:39;;;;;;;10.80;2.63;;;;;;;;;;4992853;28;20046;-79
2023/05/12 10:52:06;;;;;;;3.55;2.50;;;;;;;;;;5012063;28;20026;-79
2023/05/12 10:54:39;;;;;;;5.75;2.97;;;;;;;;;;5013018;28;20046;-79
2023/05/12 10:57:12;;;;;;;3.85;2.72;;;;;;;;;;5013026;28;20034;-79
2023/05/12 10:59:48;;;;;;;2.75;2.55;;;;;;;;;;5011584;28;20038;-79
2023/05/12 11:02:15;;;;;;;3.13;2.83;;;;;;;;;;5011596;28;20041;-79
2023/05/12 11:04:44;;;;;;;3.75;2.70;;;;;;;;;;5012960;28;20328;-78
2023/05/12 11:07:11;;;;;;;6.78;2.50;;;;;;;;;;5013356;28;20049;-79
2023/05/12 11:09:38;;;;;;;3.00;2.80;;;;;;;;;;5011557;28;20060;-79
2023/05/12 11:12:04;;;;;;;3.78;2.85;;;;;;;;;;5012942;28;20456;-79
2023/05/12 11:14:31;;;;;;;3.85;2.80;;;;;;;;;;5012917;28;20038;-79
2023/05/12 11:16:56;;;;;;;3.08;2.88;;;;;;;;;;4991840;28;20097;-78
2023/05/12 11:19:22;;;;;;;2.97;2.78;;;;;;;;;;5009131;28;20034;-78
2023/05/12 11:21:49;;;;;;;3.58;2.72;;;;;;;;;;5011190;28;20048;-77
2023/05/12 11:24:15;;;;;;;4.60;2.50;;;;;;;;;;5011383;28;20034;-78
2023/05/12 11:26:41;;;;;;;3.28;2.70;;;;;;;;;;5012264;28;20463;-79
2023/05/12 11:29:10;;;;;;;2.97;2.60;;;;;;;;;;5011065;28;20044;-79
2023/05/12 11:31:37;;;;;;;8.10;2.67;;;;;;;;;;5010581;28;20461;-78
2023/05/12 11:34:03;;;;;;;6.97;3.03;;;;;;;;;;4994572;28;20129;-79
2023/05/12 11:36:42;;;;;;;5.80;2.83;;;;;;;;;;5011890;28;20029;-78
2023/05/12 11:39:15;;;;;;;3.78;2.90;;;;;;;;;;4978164;28;20038;-79
2023/05/12 11:41:42;;;;;;;5.85;2.72;;;;;;;;;;5009992;28;20067;-79
2023/05/12 11:44:21;;;;;;;3.58;2.80;;;;;;;;;;4985606;28;20041;-79
2023/05/12 11:46:53;;;;;;;5.60;2.85;;;;;;;;;;5009413;28;20502;-80
2023/05/12 11:49:21;;;;;;;4.88;2.50;;;;;;;;;;4984937;28;20035;-79
2023/05/12 11:51:47;;;;;;;4.60;2.80;;;;;;;;;;5010019;28;20567;-79
2023/05/12 11:54:13;;;;;;;5.35;2.88;;;;;;;;;;5012101;28;20504;-80
2023/05/12 11:56:45;;;;;;;4.80;2.72;;;;;;;;;;4994024;28;20042;-79
2023/05/12 11:59:11;;;;;;;7.15;3.28;;;;;;;;;;5010124;28;20053;-79
2023/05/12 12:01:43;;;;;;;4.45;3.47;;;;;;;;;;5010127;28;20065;-79
2023/05/12 12:04:09;;;;;;;5.00;2.90;;;;;;;;;;5010196;28;20611;-79
2023/05/12 12:06:41;;;;;;;8.60;3.72;;;;;;;;;;5011803;28;20041;-79
2023/05/12 12:09:07;;;;;;;7.70;3.28;;;;;;;;;;5012241;28;20527;-79
2023/05/12 12:11:33;;;;;;;9.57;2.78;;;;;;;;;;5010097;28;20531;-79
2023/05/12 12:14:00;;;;;;;12.75;3.60;;;;;;;;;;5011278;28;20046;-79
2023/05/12 12:16:26;;;;;;;3.67;3.20;;;;;;;;;;4994161;28;20039;-80
2023/05/12 12:18:52;;;;;;;5.82;2.80;;;;;;;;;;4977158;28;20129;-80
2023/05/12 12:21:18;;;;;;;7.80;3.08;;;;;;;;;;4977366;28;20086;-79
2023/05/12 12:23:44;;;;;;;3.30;2.72;;;;;;;;;;4993284;28;20033;-80
2023/05/12 12:26:10;;;;;;;3.15;2.80;;;;;;;;;;5010931;28;20042;-79
2023/05/12 12:28:37;;;;;;;3.92;2.45;;;;;;;;;;5009477;28;20117;-79
2023/05/12 12:31:04;;;;;;;12.52;2.75;;;;;;;;;;5009358;28;20069;-79
2023/05/12 12:33:30;;;;;;;4.15;2.50;;;;;;;;;;4993473;28;20420;-80
2023/05/12 12:35:56;;;;;;;4.35;2.60;;;;;;;;;;5011000;28;20088;-79
2023/05/12 12:38:22;;;;;;;5.65;3.00;;;;;;;;;;5011556;28;20086;-78
2023/05/12 12:40:48;;;;;;;3.13;2.83;;;;;;;;;;5018769;28;20049;-80
2023/05/12 12:43:14;;;;;;;2.40;2.30;;;;;;;;;;5022141;28;20117;-79
2023/05/12 12:45:40;;;;;;;2.60;2.50;;;;;;;;;;5003007;28;20042;-77
2023/05/12 12:48:07;;;;;;;2.97;2.70;;;;;;;;;;5022052;28;20504;-80
2023/05/12 12:50:34;;;;;;;2.88;2.58;;;;;;;;;;4994897;28;20030;-80
2023/05/12 12:53:00;;;;;;;2.85;2.22;;;;;;;;;;5003221;28;20069;-80
2023/05/12 12:55:26;;;;;;;4.65;3.53;;;;;;;;;;5010979;28;20034;-79
2023/05/12 12:57:52;;;;;;;7.78;2.60;;;;;;;;;;5010419;28;20072;-80
2023/05/12 13:00:19;;;;;;;3.75;2.83;;;;;;;;;;5010686;28;20109;-79
2023/05/12 13:02:44;;;;;;;5.07;2.60;;;;;;;;;;4983568;28;20133;-79
2023/05/12 13:05:10;;;;;;;6.00;2.90;;;;;;;;;;5005115;28;20449;-80
2023/05/12 13:07:36;;;;;;;5.50;2.80;;;;;;;;;;5010769;28;20408;-80
2023/05/12 13:10:03;;;;;;;3.50;2.90;;;;;;;;;;4994110;28;20026;-80
2023/05/12 13:12:31;;;;;;;9.80;4.30;;;;;;;;;;5010498;28;20038;-79
2023/05/12 13:14:59;;;;;;;14.00;5.45;;;;;;;;;;5010544;28;20381;-80
2023/05/12 13:17:25;;;;;;;12.05;4.53;;;;;;;;;;4979952;28;20169;-79
2023/05/12 13:19:53;;;;;;;8.75;3.03;;;;;;;;;;5009753;28;20436;-78
2023/05/12 13:22:21;;;;;;;3.00;2.80;;;;;;;;;;5010598;28;20042;-78
2023/05/12 13:24:47;;;;;;;3.35;2.58;;;;;;;;;;5008956;28;20481;-79
2023/05/12 13:27:13;;;;;;;2.63;2.30;;;;;;;;;;4993049;28;20463;-78
2023/05/12 13:29:41;;;;;;;6.78;2.70;;;;;;;;;;4978697;28;20092;-78
2023/05/12 13:32:07;;;;;;;4.32;2.40;;;;;;;;;;5010690;28;20042;-78
2023/05/12 13:34:32;;;;;;;2.20;2.00;;;;;;;;;;5009405;28;20030;-77
2023/05/12 13:36:58;;;;;;;2.42;2.22;;;;;;;;;;5008888;28;20034;-78
2023/05/12 13:39:24;;;;;;;4.07;2.58;;;;;;;;;;5010490;28;20034;-78
2023/05/12 13:41:50;;;;;;;12.45;2.80;;;;;;;;;;5010009;28;20053;-78
2023/05/12 13:44:18;;;;;;;2.40;2.20;;;;;;;;;;4981435;28;20521;-79
2023/05/12 13:46:44;;;;;;;4.80;2.10;;;;;;;;;;5007634;28;20041;-78
2023/05/12 13:49:11;;;;;;;3.53;2.50;;;;;;;;;;5010624;28;20045;-78
2023/05/12 13:51:37;;;;;;;2.58;2.25;;;;;;;;;;5008770;28;20048;-78
2023/05/12 13:54:03;;;;;;;4.47;2.50;;;;;;;;;;5010387;28;20037;-78
2023/05/12 13:56:29;;;;;;;6.68;2.20;;;;;;;;;;5010674;28;20128;-78
2023/05/12 13:58:55;;;;;;;5.07;2.47;;;;;;;;;;5009019;28;20100;-78
2023/05/12 14:01:21;;;;;;;3.38;2.35;;;;;;;;;;5009849;28;20048;-78
2023/05/12 14:03:47;;;;;;;2.92;2.15;;;;;;;;;;4977149;28;20360;-78
2023/05/12 14:06:13;;;;;;;3.20;2.45;;;;;;;;;;5013617;28;20058;-79
2023/05/12 14:08:40;;;;;;;6.80;2.53;;;;;;;;;;5012364;28;20587;-78
2023/05/12 14:11:06;;;;;;;2.83;2.22;;;;;;;;;;5007459;28;20045;-77
2023/05/12 14:13:32;;;;;;;3.20;2.60;;;;;;;;;;5004297;28;20084;-78
2023/05/12 14:15:58;;;;;;;5.40;2.80;;;;;;;;;;5012877;28;20530;-78
2023/05/12 14:18:24;;;;;;;7.28;2.85;;;;;;;;;;5012188;28;20128;-79
2023/05/12 14:20:50;;;;;;;8.45;3.58;;;;;;;;;;5011619;28;20127;-78
2023/05/12 14:23:16;;;;;;;6.88;2.72;;;;;;;;;;5013567;28;20076;-79
2023/05/12 14:25:42;;;;;;;5.40;2.67;;;;;;;;;;5011898;28;20522;-78
2023/05/12 14:28:08;;;;;;;4.22;2.83;;;;;;;;;;5011714;28;20120;-77
2023/05/12 14:30:36;;;;;;;3.25;2.40;;;;;;;;;;5013137;28;20034;-78
2023/05/12 14:33:04;;;;;;;6.55;2.55;;;;;;;;;;5011666;28;20378;-77
2023/05/12 14:35:31;;;;;;;4.18;2.58;;;;;;;;;;5013488;28;20424;-77